createdAt,value
2022-09-13T00:02:20.967Z,1.65
2022-09-13T00:04:48.113Z,1.50
2022-09-13T00:07:15.279Z,1.40
2022-09-13T00:09:42.442Z,1.70
2022-09-13T00:12:09.651Z,1.63
2022-09-13T00:14:36.847Z,1.45
2022-09-13T00:17:04.132Z,1.80
2022-09-13T00:19:31.287Z,1.60
2022-09-13T00:21:58.408Z,1.42
2022-09-13T00:24:25.544Z,1.70
2022-09-13T00:26:52.700Z,1.42
2022-09-13T00:29:20.396Z,1.92
2022-09-13T00:31:47.634Z,1.40
2022-09-13T00:34:14.829Z,1.90
2022-09-13T00:36:42.012Z,2.60
2022-09-13T00:39:12.987Z,1.42
2022-09-13T00:41:40.267Z,1.70
2022-09-13T00:44:45.577Z,1.92
2022-09-13T00:47:18.719Z,1.33
2022-09-13T00:49:50.603Z,1.27
2022-09-13T00:52:22.730Z,1.60
2022-09-13T00:54:57.244Z,1.48
2022-09-13T00:57:25.740Z,1.83
2022-09-13T01:00:14.798Z,2.00
2022-09-13T01:02:47.089Z,1.55
2022-09-13T01:05:17.107Z,1.77
2022-09-13T01:07:44.576Z,2.38
2022-09-13T01:10:12.288Z,1.90
2022-09-13T01:12:56.250Z,2.00
2022-09-13T01:15:23.399Z,1.77
2022-09-13T01:17:52.849Z,1.80
2022-09-13T01:20:25.643Z,1.85
2022-09-13T01:23:08.065Z,1.65
2022-09-13T01:25:56.166Z,1.65
2022-09-13T01:28:48.134Z,1.60
2022-09-13T01:31:23.978Z,1.48
2022-09-13T01:34:37.374Z,1.50
2022-09-13T01:37:21.608Z,1.20
2022-09-13T01:40:17.415Z,1.58
2022-09-13T01:42:45.039Z,1.40
2022-09-13T01:45:18.212Z,1.45
2022-09-13T01:48:01.167Z,1.30
2022-09-13T01:50:43.197Z,1.27
2022-09-13T01:53:32.085Z,1.15
2022-09-13T01:56:03.633Z,1.30
2022-09-13T01:58:59.636Z,1.42
2022-09-13T02:01:39.788Z,1.20
2022-09-13T02:04:13.164Z,1.50
2022-09-13T02:06:50.251Z,1.40
2022-09-13T02:09:25.913Z,1.50
2022-09-13T02:12:09.074Z,1.67
2022-09-13T02:14:38.974Z,1.60
2022-09-13T02:17:11.336Z,1.90
2022-09-13T02:19:43.723Z,1.67
2022-09-13T02:22:15.412Z,1.13
2022-09-13T02:24:46.102Z,1.40
2022-09-13T02:27:19.565Z,1.30
2022-09-13T02:29:50.982Z,1.63
2022-09-13T02:32:38.318Z,1.20
2022-09-13T02:35:11.708Z,1.70
2022-09-13T02:37:41.670Z,1.60
2022-09-13T02:40:17.228Z,1.65
2022-09-13T02:42:56.469Z,1.60
2022-09-13T02:45:33.077Z,1.60
2022-09-13T02:48:04.469Z,1.58
2022-09-13T02:50:57.888Z,1.30
2022-09-13T02:53:53.242Z,1.30
2022-09-13T02:56:24.046Z,1.20
2022-09-13T02:59:19.109Z,1.13
2022-09-13T03:02:01.889Z,1.15
2022-09-13T03:04:29.243Z,1.52
2022-09-13T03:06:56.322Z,1.10
2022-09-13T03:09:24.016Z,1.10
2022-09-13T03:12:09.311Z,1.10
2022-09-13T03:14:54.941Z,0.70
2022-09-13T03:17:34.532Z,0.95
2022-09-13T03:20:14.788Z,1.00
2022-09-13T03:23:16.328Z,1.10
2022-09-13T03:25:46.345Z,1.10
2022-09-13T03:28:25.000Z,1.10
2022-09-13T03:31:21.540Z,0.90
2022-09-13T03:34:12.249Z,0.98
2022-09-13T03:36:48.345Z,1.17
2022-09-13T03:39:33.641Z,1.10
2022-09-13T03:42:06.232Z,1.00
2022-09-13T03:44:36.727Z,1.30
2022-09-13T03:47:06.408Z,0.90
2022-09-13T03:49:37.565Z,1.30
2022-09-13T03:52:05.018Z,1.20
2022-09-13T03:54:36.706Z,0.80
2022-09-13T03:57:08.670Z,1.10
2022-09-13T03:59:38.567Z,0.70
2022-09-13T04:02:08.719Z,0.70
2022-09-13T04:04:35.889Z,0.90
2022-09-13T04:07:04.202Z,1.00
2022-09-13T04:09:31.812Z,1.08
2022-09-13T04:11:58.954Z,1.10
2022-09-13T04:14:28.902Z,1.13
2022-09-13T04:16:57.403Z,0.88
2022-09-13T04:19:25.719Z,0.70
2022-09-13T04:21:54.693Z,0.90
2022-09-13T04:24:27.827Z,0.90
2022-09-13T04:26:56.221Z,0.90
2022-09-13T04:29:25.410Z,1.30
2022-09-13T04:31:54.123Z,1.00
2022-09-13T04:34:24.541Z,0.93
2022-09-13T04:36:52.849Z,1.02
2022-09-13T04:39:20.657Z,1.25
2022-09-13T04:41:48.715Z,1.20
2022-09-13T04:44:17.349Z,1.00
2022-09-13T04:46:48.143Z,1.15
2022-09-13T04:49:16.899Z,1.15
2022-09-13T04:51:44.025Z,0.75
2022-09-13T04:54:15.496Z,1.00
2022-09-13T04:56:44.031Z,0.95
2022-09-13T04:59:12.078Z,1.27
2022-09-13T05:01:40.347Z,1.05
2022-09-13T05:04:07.951Z,1.13
2022-09-13T05:06:35.614Z,1.10
2022-09-13T05:09:03.735Z,1.30
2022-09-13T05:11:31.317Z,0.95
2022-09-13T05:14:00.164Z,1.38
2022-09-13T05:16:32.503Z,1.58
2022-09-13T05:19:00.476Z,1.42
2022-09-13T05:21:28.307Z,1.60
2022-09-13T05:23:56.225Z,1.55
2022-09-13T05:26:25.213Z,1.33
2022-09-13T05:28:52.345Z,1.05
2022-09-13T05:31:24.563Z,1.45
2022-09-13T05:33:59.047Z,1.10
2022-09-13T05:36:26.443Z,1.40
2022-09-13T05:39:12.214Z,1.30
2022-09-13T05:41:42.059Z,1.30
2022-09-13T05:44:13.348Z,1.67
2022-09-13T05:46:42.271Z,1.08
2022-09-13T05:49:09.379Z,1.20
2022-09-13T05:51:36.488Z,1.30
2022-09-13T05:54:03.599Z,0.98
2022-09-13T05:56:32.045Z,1.42
2022-09-13T05:58:59.130Z,1.20
2022-09-13T06:01:29.023Z,0.70
2022-09-13T06:03:58.706Z,0.80
2022-09-13T06:06:26.248Z,0.90
2022-09-13T06:08:54.999Z,1.40
2022-09-13T06:11:22.819Z,0.80
2022-09-13T06:13:50.750Z,0.88
2022-09-13T06:16:17.986Z,0.88
2022-09-13T06:18:45.535Z,1.25
2022-09-13T06:21:18.710Z,0.82
2022-09-13T06:23:53.969Z,0.90
2022-09-13T06:26:23.796Z,0.73
2022-09-13T06:28:53.239Z,1.10
2022-09-13T06:31:22.937Z,0.80
2022-09-13T06:33:57.361Z,0.60
2022-09-13T06:36:24.544Z,1.20
2022-09-13T06:38:51.626Z,0.65
2022-09-13T06:41:22.426Z,0.73
2022-09-13T06:44:00.147Z,1.48
2022-09-13T06:46:29.357Z,1.13
2022-09-13T06:49:00.241Z,1.45
2022-09-13T06:51:29.574Z,0.85
2022-09-13T06:56:26.625Z,0.90
2022-09-13T06:59:02.759Z,0.90
2022-09-13T07:01:32.608Z,1.05
2022-09-13T07:04:19.428Z,0.90
2022-09-13T07:06:48.800Z,0.70
2022-09-13T07:11:47.021Z,1.00
2022-09-13T07:14:23.250Z,0.88
2022-09-13T07:16:51.749Z,0.63
2022-09-13T07:19:22.789Z,1.20
2022-09-13T07:21:50.511Z,0.82
2022-09-13T07:24:19.311Z,0.60
2022-09-13T07:26:46.764Z,1.00
2022-09-13T07:29:16.329Z,0.80
2022-09-13T07:31:46.162Z,1.45
2022-09-13T07:34:16.305Z,1.52
2022-09-13T07:36:43.517Z,1.15
2022-09-13T07:39:14.506Z,1.40
2022-09-13T07:41:42.976Z,1.10
2022-09-13T07:44:11.580Z,1.30
2022-09-13T07:46:45.677Z,2.55
2022-09-13T07:49:16.748Z,2.25
2022-09-13T07:51:44.329Z,1.95
2022-09-13T07:54:14.622Z,1.20
2022-09-13T07:56:42.365Z,1.10
2022-09-13T07:59:17.171Z,0.90
2022-09-13T08:01:49.040Z,0.80
2022-09-13T08:04:19.081Z,1.38
2022-09-13T08:06:46.915Z,1.30
2022-09-13T08:09:15.434Z,1.38
2022-09-13T08:11:48.739Z,0.73
2022-09-13T08:14:17.864Z,1.05
2022-09-13T08:16:45.282Z,0.93
2022-09-13T08:19:15.744Z,1.23
2022-09-13T08:21:44.139Z,0.90
2022-09-13T08:24:16.999Z,1.37
2022-09-13T08:26:44.633Z,1.30
2022-09-13T08:29:13.210Z,1.30
2022-09-13T08:31:40.393Z,0.90
2022-09-13T08:34:11.666Z,0.80
2022-09-13T08:36:40.249Z,1.10
2022-09-13T08:39:07.579Z,1.02
2022-09-13T08:41:41.917Z,0.77
2022-09-13T08:44:26.442Z,1.00
2022-09-13T08:47:15.328Z,0.98
2022-09-13T08:49:47.719Z,0.90
2022-09-13T08:52:41.845Z,0.70
2022-09-13T08:55:35.010Z,1.20
2022-09-13T08:58:28.706Z,1.23
2022-09-13T09:01:06.445Z,0.90
2022-09-13T09:03:49.108Z,1.15
2022-09-13T09:06:17.698Z,1.27
2022-09-13T09:08:52.384Z,1.37
2022-09-13T09:11:31.337Z,1.30
2022-09-13T09:14:15.480Z,1.30
2022-09-13T09:16:55.386Z,1.00
2022-09-13T09:19:34.399Z,1.00
2022-09-13T09:22:13.155Z,0.93
2022-09-13T09:24:44.866Z,1.38
2022-09-13T09:27:15.995Z,0.85
2022-09-13T09:29:44.573Z,0.93
2022-09-13T09:32:20.237Z,1.05
2022-09-13T09:35:08.972Z,1.80
2022-09-13T09:37:37.663Z,1.40
2022-09-13T09:40:10.363Z,0.90
2022-09-13T09:42:49.025Z,1.08
2022-09-13T09:45:33.212Z,0.90
2022-09-13T09:48:07.119Z,1.05
2022-09-13T09:50:39.110Z,1.25
2022-09-13T09:53:09.771Z,1.30
2022-09-13T09:55:46.579Z,1.33
2022-09-13T09:58:18.105Z,1.48
2022-09-13T10:00:54.841Z,1.30
2022-09-13T10:03:31.551Z,1.38
2022-09-13T10:06:28.260Z,1.95
2022-09-13T10:09:21.899Z,1.23
2022-09-13T10:11:52.928Z,1.25
2022-09-13T10:14:42.726Z,1.13
2022-09-13T10:17:21.165Z,1.10
2022-09-13T10:19:59.622Z,1.53
2022-09-13T10:22:28.791Z,1.73
2022-09-13T10:24:56.052Z,1.83
2022-09-13T10:27:37.824Z,1.42
2022-09-13T10:30:06.424Z,1.77
2022-09-13T10:32:33.998Z,1.55
2022-09-13T10:35:16.419Z,1.20
2022-09-13T10:37:45.261Z,1.40
2022-09-13T10:40:30.189Z,1.10
2022-09-13T10:42:59.473Z,1.33
2022-09-13T10:48:03.045Z,1.20
2022-09-13T10:50:35.846Z,1.35
2022-09-13T10:53:05.142Z,1.20
2022-09-13T10:58:03.349Z,0.70
2022-09-13T11:01:13.365Z,0.75
2022-09-13T11:03:46.601Z,0.88
2022-09-13T11:06:25.607Z,0.75
2022-09-13T11:09:10.783Z,0.60
2022-09-13T11:12:00.394Z,0.85
2022-09-13T11:14:48.601Z,0.90
2022-09-13T11:17:25.743Z,0.75
2022-09-13T11:20:18.750Z,0.80
2022-09-13T11:22:58.456Z,0.85
2022-09-13T11:25:58.219Z,1.48
2022-09-13T11:28:30.926Z,1.40
2022-09-13T11:31:10.147Z,1.20
2022-09-13T11:36:33.248Z,0.90
2022-09-13T11:39:16.811Z,1.05
2022-09-13T11:42:16.567Z,1.33
2022-09-13T11:45:06.605Z,1.05
2022-09-13T11:47:57.931Z,0.80
2022-09-13T11:50:28.556Z,0.77
2022-09-13T11:53:07.867Z,1.02
2022-09-13T11:55:48.008Z,0.90
2022-09-13T11:58:23.145Z,1.05
2022-09-13T12:00:59.124Z,1.25
2022-09-13T12:03:31.891Z,1.20
2022-09-13T12:06:08.097Z,0.90
2022-09-13T12:08:36.674Z,1.10
2022-09-13T12:11:16.089Z,0.95
2022-09-13T12:14:00.189Z,1.05
2022-09-13T12:16:48.681Z,1.20
2022-09-13T12:19:30.120Z,1.10
2022-09-13T12:22:00.907Z,1.20
2022-09-13T12:24:38.031Z,0.90
2022-09-13T12:27:42.770Z,0.93
2022-09-13T12:30:22.060Z,1.15
2022-09-13T12:32:50.288Z,0.80
2022-09-13T12:35:25.859Z,0.75
2022-09-13T12:38:31.549Z,1.25
2022-09-13T12:41:12.931Z,0.90
2022-09-13T12:44:09.954Z,0.98
2022-09-13T12:46:55.279Z,0.95
2022-09-13T12:49:44.774Z,0.80
2022-09-13T12:52:37.993Z,0.70
2022-09-13T12:55:45.977Z,0.80
2022-09-13T12:58:46.494Z,1.70
2022-09-13T13:01:22.770Z,0.90
2022-09-13T13:03:54.491Z,1.08
2022-09-13T13:06:38.266Z,0.80
2022-09-13T13:09:28.742Z,1.00
2022-09-13T13:11:58.355Z,0.98
2022-09-13T13:14:29.354Z,0.70
2022-09-13T13:17:34.679Z,1.48
2022-09-13T13:20:39.211Z,1.00
2022-09-13T13:23:27.639Z,0.80
2022-09-13T13:25:57.958Z,0.88
2022-09-13T13:28:43.032Z,0.52
2022-09-13T13:31:21.950Z,0.80
2022-09-13T13:33:52.014Z,0.80
2022-09-13T13:36:24.545Z,1.20
2022-09-13T13:38:53.651Z,0.90
2022-09-13T13:41:32.841Z,0.68
2022-09-13T13:44:01.142Z,0.90
2022-09-13T13:46:32.175Z,0.70
2022-09-13T13:49:31.250Z,0.93
2022-09-13T13:52:10.668Z,0.80
2022-09-13T13:54:50.318Z,0.90
2022-09-13T13:57:34.062Z,0.90
2022-09-13T14:00:19.238Z,0.70
2022-09-13T14:03:10.044Z,0.60
2022-09-13T14:06:09.080Z,1.00
2022-09-13T14:11:44.200Z,0.60
2022-09-13T14:14:43.677Z,0.98
2022-09-13T14:17:41.533Z,0.90
2022-09-13T14:20:16.861Z,1.00
2022-09-13T14:22:43.957Z,0.82
2022-09-13T14:25:23.513Z,1.10
2022-09-13T14:27:58.907Z,0.82
2022-09-13T14:30:35.368Z,1.00
2022-09-13T14:33:05.216Z,0.60
2022-09-13T14:35:35.693Z,0.73
2022-09-13T14:38:30.875Z,0.70
2022-09-13T14:41:01.489Z,0.70
2022-09-13T14:43:30.544Z,0.80
2022-09-13T14:46:06.823Z,1.00
2022-09-13T14:48:48.009Z,3.70
2022-09-13T14:51:26.545Z,0.95
2022-09-13T14:54:19.793Z,0.88
2022-09-13T14:56:52.437Z,1.13
2022-09-13T14:59:43.319Z,0.82
2022-09-13T15:02:20.664Z,1.02
2022-09-13T15:04:52.094Z,0.75
2022-09-13T15:07:35.096Z,0.90
2022-09-13T15:10:20.866Z,0.70
2022-09-13T15:12:53.943Z,0.80
2022-09-13T15:15:35.241Z,1.00
2022-09-13T15:18:06.134Z,0.80
2022-09-13T15:20:56.371Z,1.27
2022-09-13T15:23:28.362Z,0.57
2022-09-13T15:26:04.450Z,1.00
2022-09-13T15:28:34.769Z,0.95
2022-09-13T15:31:02.556Z,0.90
2022-09-13T15:33:31.995Z,1.10
2022-09-13T15:36:17.983Z,0.80
2022-09-13T15:39:02.425Z,1.30
2022-09-13T15:41:35.444Z,0.80
2022-09-13T15:44:04.662Z,0.90
2022-09-13T15:46:34.693Z,0.90
2022-09-13T15:49:04.227Z,0.90
2022-09-13T15:51:35.534Z,0.90
2022-09-13T15:54:12.919Z,0.90
2022-09-13T15:56:43.385Z,0.63
2022-09-13T15:59:21.290Z,1.40
2022-09-13T16:01:50.699Z,1.08
2022-09-13T16:04:18.631Z,0.90
2022-09-13T16:06:46.552Z,1.25
2022-09-13T16:09:24.599Z,1.30
2022-09-13T16:11:52.112Z,1.00
2022-09-13T16:14:22.200Z,0.88
2022-09-13T16:16:49.766Z,0.90
2022-09-13T16:19:20.111Z,1.10
2022-09-13T16:21:49.039Z,1.02
2022-09-13T16:24:16.931Z,0.90
2022-09-13T16:26:44.226Z,1.25
2022-09-13T16:29:12.541Z,1.50
2022-09-13T16:31:39.963Z,0.90
2022-09-13T16:34:07.279Z,1.08
2022-09-13T16:36:34.393Z,1.00
2022-09-13T16:39:01.553Z,0.93
2022-09-13T16:41:28.751Z,1.20
2022-09-13T16:43:57.054Z,1.05
2022-09-13T16:46:24.192Z,1.10
2022-09-13T16:48:55.588Z,1.20
2022-09-13T16:51:24.002Z,1.20
2022-09-13T16:53:52.110Z,1.43
2022-09-13T16:56:22.091Z,1.10
2022-09-13T16:58:50.496Z,1.25
2022-09-13T17:01:23.305Z,1.20
2022-09-13T17:03:54.575Z,1.17
2022-09-13T17:06:23.733Z,0.98
2022-09-13T17:08:56.962Z,0.95
2022-09-13T17:11:26.378Z,1.38
2022-09-13T17:13:54.307Z,1.38
2022-09-13T17:16:41.313Z,1.00
2022-09-13T17:19:13.742Z,1.25
2022-09-13T17:21:40.907Z,1.33
2022-09-13T17:24:13.259Z,1.50
2022-09-13T17:26:46.575Z,1.23
2022-09-13T17:29:14.701Z,1.30
2022-09-13T17:31:43.265Z,1.48
2022-09-13T17:34:11.445Z,1.25
2022-09-13T17:36:39.617Z,1.30
2022-09-13T17:39:07.091Z,2.13
2022-09-13T17:41:34.200Z,1.45
2022-09-13T17:44:01.384Z,1.40
2022-09-13T17:46:30.183Z,1.20
2022-09-13T17:48:59.161Z,1.70
2022-09-13T17:51:29.253Z,1.73
2022-09-13T17:54:00.078Z,1.55
2022-09-13T17:56:29.538Z,1.70
2022-09-13T17:59:05.832Z,1.80
2022-09-13T18:01:38.206Z,2.05
2022-09-13T18:04:06.084Z,2.13
2022-09-13T18:06:33.441Z,1.88
2022-09-13T18:09:00.502Z,2.70
2022-09-13T18:11:27.577Z,2.17
2022-09-13T18:13:54.744Z,3.30
2022-09-13T18:16:25.001Z,3.28
2022-09-13T18:18:53.506Z,2.45
2022-09-13T18:21:23.187Z,3.10
2022-09-13T18:23:52.756Z,2.38
2022-09-13T18:26:22.197Z,2.83
2022-09-13T18:29:04.081Z,2.28
2022-09-13T18:31:32.902Z,2.38
2022-09-13T18:34:02.674Z,2.22
2022-09-13T18:36:31.864Z,2.10
2022-09-13T18:41:29.617Z,1.85
2022-09-13T18:43:57.013Z,2.20
2022-09-13T18:46:26.983Z,1.95
2022-09-13T18:48:57.653Z,1.80
2022-09-13T18:51:29.143Z,1.95
2022-09-13T18:53:58.195Z,2.35
2022-09-13T18:56:26.122Z,1.77
2022-09-13T18:58:54.587Z,1.40
2022-09-13T19:01:24.574Z,1.67
2022-09-13T19:03:58.096Z,2.08
2022-09-13T19:06:31.741Z,2.35
2022-09-13T19:09:00.474Z,2.88
2022-09-13T19:11:48.964Z,2.83
2022-09-13T19:14:23.199Z,2.35
2022-09-13T19:16:52.284Z,2.13
2022-09-13T19:19:19.824Z,3.92
2022-09-13T19:21:47.267Z,2.45
2022-09-13T19:24:19.325Z,2.50
2022-09-13T19:26:51.321Z,2.67
2022-09-13T19:29:21.838Z,3.53
2022-09-13T19:31:50.809Z,3.15
2022-09-13T19:34:19.881Z,3.83
2022-09-13T19:36:49.648Z,3.58
2022-09-13T19:39:17.094Z,2.90
2022-09-13T19:41:44.565Z,3.58
2022-09-13T19:44:13.059Z,3.53
2022-09-13T19:46:41.871Z,3.43
2022-09-13T19:49:13.776Z,3.97
2022-09-13T19:51:42.736Z,3.78
2022-09-13T19:54:12.603Z,3.55
2022-09-13T19:56:43.387Z,2.60
2022-09-13T19:59:13.449Z,2.17
2022-09-13T20:01:44.144Z,2.60
2022-09-13T20:04:14.833Z,2.90
2022-09-13T20:06:46.201Z,2.45
2022-09-13T20:09:15.673Z,2.45
2022-09-13T20:11:47.478Z,2.97
2022-09-13T20:14:18.065Z,1.98
2022-09-13T20:16:46.312Z,2.25
2022-09-13T20:19:39.723Z,2.00
2022-09-13T20:22:07.659Z,1.63
2022-09-13T20:24:35.038Z,2.17
2022-09-13T20:27:02.244Z,1.75
2022-09-13T20:29:29.362Z,1.67
2022-09-13T20:31:56.475Z,1.80
2022-09-13T20:34:23.502Z,1.75
2022-09-13T20:36:50.601Z,1.63
2022-09-13T20:39:17.849Z,1.85
2022-09-13T20:41:45.115Z,1.90
2022-09-13T20:44:12.275Z,1.55
2022-09-13T20:46:40.398Z,1.75
2022-09-13T20:49:09.084Z,1.60
2022-09-13T20:51:37.191Z,1.98
2022-09-13T20:54:05.208Z,2.17
2022-09-13T20:56:34.102Z,1.40
2022-09-13T20:59:01.852Z,1.48
2022-09-13T21:01:31.202Z,1.52
2022-09-13T21:03:59.491Z,1.25
2022-09-13T21:06:29.363Z,1.92
2022-09-13T21:08:59.787Z,1.35
2022-09-13T21:11:32.720Z,1.67
2022-09-13T21:14:02.713Z,1.20
2022-09-13T21:16:41.222Z,1.75
2022-09-13T21:19:09.144Z,1.30
2022-09-13T21:21:39.888Z,1.40
2022-09-13T21:24:09.661Z,1.00
2022-09-13T21:26:41.951Z,1.40
2022-09-13T21:29:10.504Z,1.55
2022-09-13T21:31:38.547Z,1.67
2022-09-13T21:34:08.423Z,1.65
2022-09-13T21:36:35.868Z,2.17
2022-09-13T21:39:04.475Z,2.13
2022-09-13T21:41:32.015Z,1.77
2022-09-13T21:43:59.151Z,1.85
2022-09-13T21:46:28.374Z,1.60
2022-09-13T21:51:29.075Z,1.70
2022-09-13T21:53:59.243Z,1.63
2022-09-13T21:56:28.944Z,1.45
2022-09-13T21:59:00.894Z,1.30
2022-09-13T22:01:31.214Z,2.03
2022-09-13T22:03:59.171Z,1.30
2022-09-13T22:06:30.274Z,2.47
2022-09-13T22:09:06.558Z,1.27
2022-09-13T22:11:38.501Z,1.60
2022-09-13T22:14:07.296Z,1.48
2022-09-13T22:16:37.084Z,1.00
2022-09-13T22:19:20.171Z,1.58
2022-09-13T22:21:50.258Z,0.85
2022-09-13T22:24:20.652Z,1.02
2022-09-13T22:26:49.722Z,1.20
2022-09-13T22:29:17.244Z,1.27
2022-09-13T22:31:46.126Z,1.10
2022-09-13T22:34:15.922Z,1.05
2022-09-13T22:36:43.106Z,1.20
2022-09-13T22:39:15.199Z,1.42
2022-09-13T22:41:43.089Z,1.83
2022-09-13T22:44:10.221Z,1.30
2022-09-13T22:46:40.386Z,1.83
2022-09-13T22:49:07.922Z,1.48
2022-09-13T22:51:34.961Z,1.00
2022-09-13T22:54:06.865Z,1.02
2022-09-13T22:56:36.348Z,1.02
2022-09-13T22:59:09.375Z,1.27
2022-09-13T23:01:37.913Z,1.10
2022-09-13T23:04:05.312Z,0.90
2022-09-13T23:06:33.239Z,1.25
2022-09-13T23:09:01.927Z,1.55
2022-09-13T23:11:39.599Z,1.00
2022-09-13T23:14:10.021Z,1.00
2022-09-13T23:16:45.488Z,1.45
2022-09-13T23:19:13.604Z,0.98
2022-09-13T23:21:41.539Z,1.00
2022-09-13T23:24:12.980Z,1.15
2022-09-13T23:26:40.320Z,1.73
2022-09-13T23:29:07.381Z,1.10
2022-09-13T23:31:38.742Z,1.65
2022-09-13T23:34:07.777Z,1.20
2022-09-13T23:36:37.734Z,1.85
2022-09-13T23:39:07.892Z,1.85
2022-09-13T23:41:35.386Z,1.67
2022-09-13T23:44:03.617Z,1.23
2022-09-13T23:46:31.130Z,1.08
2022-09-13T23:48:58.197Z,1.02
2022-09-13T23:51:26.936Z,1.45
2022-09-13T23:54:00.457Z,1.45
2022-09-13T23:56:30.420Z,1.67
2022-09-13T23:58:59.061Z,2.05
